sensor_id;sensor_type;location;lat;lon;timestamp;temperature;humidity
84791;DHT22;75024;43.486;3.794;2024-01-16T00:00:12;7.60;75.10
84791;DHT22;75024;43.486;3.794;2024-01-16T00:02:38;7.60;75.10
84791;DHT22;75024;43.486;3.794;2024-01-16T00:05:03;7.60;75.30
84791;DHT22;75024;43.486;3.794;2024-01-16T00:07:29;7.50;75.80
84791;DHT22;75024;43.486;3.794;2024-01-16T00:09:55;7.40;75.70
84791;DHT22;75024;43.486;3.794;2024-01-16T00:12:20;7.40;76.30
84791;DHT22;75024;43.486;3.794;2024-01-16T00:14:46;7.40;76.10
84791;DHT22;75024;43.486;3.794;2024-01-16T00:17:12;7.30;76.30
84791;DHT22;75024;43.486;3.794;2024-01-16T00:19:38;7.30;76.70
84791;DHT22;75024;43.486;3.794;2024-01-16T00:22:03;7.30;76.60
84791;DHT22;75024;43.486;3.794;2024-01-16T00:24:30;7.30;76.50
84791;DHT22;75024;43.486;3.794;2024-01-16T00:26:56;7.40;76.30
84791;DHT22;75024;43.486;3.794;2024-01-16T00:29:21;7.40;75.90
84791;DHT22;75024;43.486;3.794;2024-01-16T00:31:47;7.50;75.70
84791;DHT22;75024;43.486;3.794;2024-01-16T00:34:13;7.50;74.90
84791;DHT22;75024;43.486;3.794;2024-01-16T00:36:39;7.50;74.80
84791;DHT22;75024;43.486;3.794;2024-01-16T00:39:04;7.50;74.30
84791;DHT22;75024;43.486;3.794;2024-01-16T00:41:30;7.50;74.00
84791;DHT22;75024;43.486;3.794;2024-01-16T00:43:56;7.60;73.50
84791;DHT22;75024;43.486;3.794;2024-01-16T00:46:22;7.70;73.10
84791;DHT22;75024;43.486;3.794;2024-01-16T00:48:47;7.70;72.90
84791;DHT22;75024;43.486;3.794;2024-01-16T00:51:13;7.80;72.70
84791;DHT22;75024;43.486;3.794;2024-01-16T00:53:42;7.80;72.70
84791;DHT22;75024;43.486;3.794;2024-01-16T00:56:09;7.80;72.90
84791;DHT22;75024;43.486;3.794;2024-01-16T00:58:35;7.80;72.70
84791;DHT22;75024;43.486;3.794;2024-01-16T01:01:01;7.80;72.60
84791;DHT22;75024;43.486;3.794;2024-01-16T01:03:26;7.80;72.40
84791;DHT22;75024;43.486;3.794;2024-01-16T01:05:52;7.80;72.40
84791;DHT22;75024;43.486;3.794;2024-01-16T01:08:19;7.80;72.60
84791;DHT22;75024;43.486;3.794;2024-01-16T01:10:44;7.80;72.30
84791;DHT22;75024;43.486;3.794;2024-01-16T01:13:10;7.80;72.20
84791;DHT22;75024;43.486;3.794;2024-01-16T01:15:36;7.80;71.90
84791;DHT22;75024;43.486;3.794;2024-01-16T01:18:01;7.80;71.80
84791;DHT22;75024;43.486;3.794;2024-01-16T01:20:27;7.80;71.60
84791;DHT22;75024;43.486;3.794;2024-01-16T01:22:53;7.80;71.40
84791;DHT22;75024;43.486;3.794;2024-01-16T01:25:18;7.80;71.20
84791;DHT22;75024;43.486;3.794;2024-01-16T01:27:44;7.80;71.20
84791;DHT22;75024;43.486;3.794;2024-01-16T01:30:10;7.80;71.20
84791;DHT22;75024;43.486;3.794;2024-01-16T01:32:36;7.80;71.00
84791;DHT22;75024;43.486;3.794;2024-01-16T01:35:02;7.70;71.20
84791;DHT22;75024;43.486;3.794;2024-01-16T01:37:28;7.60;71.60
84791;DHT22;75024;43.486;3.794;2024-01-16T01:39:53;7.50;72.20
84791;DHT22;75024;43.486;3.794;2024-01-16T01:42:19;7.50;72.30
84791;DHT22;75024;43.486;3.794;2024-01-16T01:44:45;7.50;72.50
84791;DHT22;75024;43.486;3.794;2024-01-16T01:47:10;7.50;72.50
84791;DHT22;75024;43.486;3.794;2024-01-16T01:49:36;7.50;72.70
84791;DHT22;75024;43.486;3.794;2024-01-16T01:52:03;7.50;72.40
84791;DHT22;75024;43.486;3.794;2024-01-16T01:54:42;7.50;72.40
84791;DHT22;75024;43.486;3.794;2024-01-16T01:57:08;7.40;71.70
84791;DHT22;75024;43.486;3.794;2024-01-16T01:59:34;7.30;72.20
84791;DHT22;75024;43.486;3.794;2024-01-16T02:02:01;7.30;72.30
84791;DHT22;75024;43.486;3.794;2024-01-16T02:04:29;7.10;72.60
84791;DHT22;75024;43.486;3.794;2024-01-16T02:06:56;7.10;72.60
84791;DHT22;75024;43.486;3.794;2024-01-16T02:09:22;7.10;73.00
84791;DHT22;75024;43.486;3.794;2024-01-16T02:11:48;7.00;73.30
84791;DHT22;75024;43.486;3.794;2024-01-16T02:14:13;7.00;73.50
84791;DHT22;75024;43.486;3.794;2024-01-16T02:16:42;7.00;73.90
84791;DHT22;75024;43.486;3.794;2024-01-16T02:19:10;7.00;74.10
84791;DHT22;75024;43.486;3.794;2024-01-16T02:21:41;7.00;74.40
84791;DHT22;75024;43.486;3.794;2024-01-16T02:24:09;7.00;74.30
84791;DHT22;75024;43.486;3.794;2024-01-16T02:26:36;7.00;74.80
84791;DHT22;75024;43.486;3.794;2024-01-16T02:29:03;7.10;75.00
84791;DHT22;75024;43.486;3.794;2024-01-16T02:31:32;7.10;74.80
84791;DHT22;75024;43.486;3.794;2024-01-16T02:33:58;7.10;74.90
84791;DHT22;75024;43.486;3.794;2024-01-16T02:36:27;7.00;75.10
84791;DHT22;75024;43.486;3.794;2024-01-16T02:38:53;6.90;75.70
84791;DHT22;75024;43.486;3.794;2024-01-16T02:41:19;6.80;76.00
84791;DHT22;75024;43.486;3.794;2024-01-16T02:43:45;6.90;76.00
84791;DHT22;75024;43.486;3.794;2024-01-16T02:46:11;7.00;75.90
84791;DHT22;75024;43.486;3.794;2024-01-16T02:48:37;7.00;75.80
84791;DHT22;75024;43.486;3.794;2024-01-16T02:51:03;7.10;75.40
84791;DHT22;75024;43.486;3.794;2024-01-16T02:53:29;7.10;75.50
84791;DHT22;75024;43.486;3.794;2024-01-16T02:55:55;7.20;75.50
84791;DHT22;75024;43.486;3.794;2024-01-16T02:58:24;7.20;75.20
84791;DHT22;75024;43.486;3.794;2024-01-16T03:00:50;7.20;75.60
84791;DHT22;75024;43.486;3.794;2024-01-16T03:03:16;7.10;75.80
84791;DHT22;75024;43.486;3.794;2024-01-16T03:05:42;7.20;75.50
84791;DHT22;75024;43.486;3.794;2024-01-16T03:08:07;7.10;75.20
84791;DHT22;75024;43.486;3.794;2024-01-16T03:10:33;7.10;75.30
84791;DHT22;75024;43.486;3.794;2024-01-16T03:12:58;7.00;75.50
84791;DHT22;75024;43.486;3.794;2024-01-16T03:15:24;7.00;75.70
84791;DHT22;75024;43.486;3.794;2024-01-16T03:17:50;7.00;75.70
84791;DHT22;75024;43.486;3.794;2024-01-16T03:20:17;7.00;75.70
84791;DHT22;75024;43.486;3.794;2024-01-16T03:22:44;7.10;75.70
84791;DHT22;75024;43.486;3.794;2024-01-16T03:25:10;7.10;75.40
84791;DHT22;75024;43.486;3.794;2024-01-16T03:27:38;7.10;75.30
84791;DHT22;75024;43.486;3.794;2024-01-16T03:30:05;7.00;74.80
84791;DHT22;75024;43.486;3.794;2024-01-16T03:32:31;7.00;75.10
84791;DHT22;75024;43.486;3.794;2024-01-16T03:34:57;7.00;74.80
84791;DHT22;75024;43.486;3.794;2024-01-16T03:37:23;7.00;75.10
84791;DHT22;75024;43.486;3.794;2024-01-16T03:39:48;6.90;75.10
84791;DHT22;75024;43.486;3.794;2024-01-16T03:42:15;6.80;75.70
84791;DHT22;75024;43.486;3.794;2024-01-16T03:44:41;6.80;75.70
84791;DHT22;75024;43.486;3.794;2024-01-16T03:47:07;6.70;76.00
84791;DHT22;75024;43.486;3.794;2024-01-16T03:49:33;6.80;76.10
84791;DHT22;75024;43.486;3.794;2024-01-16T03:51:59;6.80;76.40
84791;DHT22;75024;43.486;3.794;2024-01-16T03:54:25;6.80;76.70
84791;DHT22;75024;43.486;3.794;2024-01-16T03:56:51;6.80;76.80
84791;DHT22;75024;43.486;3.794;2024-01-16T03:59:17;6.70;77.20
84791;DHT22;75024;43.486;3.794;2024-01-16T04:01:42;6.70;77.00
84791;DHT22;75024;43.486;3.794;2024-01-16T04:04:10;6.70;76.90
84791;DHT22;75024;43.486;3.794;2024-01-16T04:06:36;6.60;77.10
84791;DHT22;75024;43.486;3.794;2024-01-16T04:09:02;6.60;77.10
84791;DHT22;75024;43.486;3.794;2024-01-16T04:11:28;6.60;77.30
84791;DHT22;75024;43.486;3.794;2024-01-16T04:13:54;6.60;76.90
84791;DHT22;75024;43.486;3.794;2024-01-16T04:16:20;6.70;76.60
84791;DHT22;75024;43.486;3.794;2024-01-16T04:18:45;6.70;76.20
84791;DHT22;75024;43.486;3.794;2024-01-16T04:21:11;6.60;76.60
84791;DHT22;75024;43.486;3.794;2024-01-16T04:23:37;6.60;76.20
84791;DHT22;75024;43.486;3.794;2024-01-16T04:26:02;6.60;76.20
84791;DHT22;75024;43.486;3.794;2024-01-16T04:28:28;6.60;76.10
84791;DHT22;75024;43.486;3.794;2024-01-16T04:30:54;6.50;76.30
84791;DHT22;75024;43.486;3.794;2024-01-16T04:33:20;6.60;76.60
84791;DHT22;75024;43.486;3.794;2024-01-16T04:35:45;6.60;75.80
84791;DHT22;75024;43.486;3.794;2024-01-16T04:38:11;6.60;76.10
84791;DHT22;75024;43.486;3.794;2024-01-16T04:40:37;6.60;76.10
84791;DHT22;75024;43.486;3.794;2024-01-16T04:43:03;6.70;76.10
84791;DHT22;75024;43.486;3.794;2024-01-16T04:45:28;6.60;75.80
84791;DHT22;75024;43.486;3.794;2024-01-16T04:47:54;6.60;75.50
84791;DHT22;75024;43.486;3.794;2024-01-16T04:50:20;6.60;75.40
84791;DHT22;75024;43.486;3.794;2024-01-16T04:52:45;6.60;74.90
84791;DHT22;75024;43.486;3.794;2024-01-16T04:55:11;6.60;75.00
84791;DHT22;75024;43.486;3.794;2024-01-16T04:57:37;6.60;74.60
84791;DHT22;75024;43.486;3.794;2024-01-16T05:00:03;6.50;74.10
84791;DHT22;75024;43.486;3.794;2024-01-16T05:02:35;6.50;74.30
84791;DHT22;75024;43.486;3.794;2024-01-16T05:05:01;6.50;74.50
84791;DHT22;75024;43.486;3.794;2024-01-16T05:07:26;6.50;74.70
84791;DHT22;75024;43.486;3.794;2024-01-16T05:09:52;6.50;74.80
84791;DHT22;75024;43.486;3.794;2024-01-16T05:12:19;6.50;74.90
84791;DHT22;75024;43.486;3.794;2024-01-16T05:14:44;6.50;74.80
84791;DHT22;75024;43.486;3.794;2024-01-16T05:17:10;6.50;74.50
84791;DHT22;75024;43.486;3.794;2024-01-16T05:19:36;6.50;74.70
84791;DHT22;75024;43.486;3.794;2024-01-16T05:22:02;6.50;74.40
84791;DHT22;75024;43.486;3.794;2024-01-16T05:24:28;6.60;74.20
84791;DHT22;75024;43.486;3.794;2024-01-16T05:26:54;6.60;73.90
84791;DHT22;75024;43.486;3.794;2024-01-16T05:29:19;6.60;73.50
84791;DHT22;75024;43.486;3.794;2024-01-16T05:31:45;6.50;73.40
84791;DHT22;75024;43.486;3.794;2024-01-16T05:34:11;6.60;73.20
84791;DHT22;75024;43.486;3.794;2024-01-16T05:36:37;6.60;72.90
84791;DHT22;75024;43.486;3.794;2024-01-16T05:39:02;6.50;73.10
84791;DHT22;75024;43.486;3.794;2024-01-16T05:41:35;6.50;73.00
84791;DHT22;75024;43.486;3.794;2024-01-16T05:44:01;6.50;72.30
84791;DHT22;75024;43.486;3.794;2024-01-16T05:46:32;6.50;71.50
84791;DHT22;75024;43.486;3.794;2024-01-16T05:48:58;6.50;71.60
84791;DHT22;75024;43.486;3.794;2024-01-16T05:51:26;6.40;71.40
84791;DHT22;75024;43.486;3.794;2024-01-16T05:53:51;6.40;71.40
84791;DHT22;75024;43.486;3.794;2024-01-16T05:56:17;6.40;71.20
84791;DHT22;75024;43.486;3.794;2024-01-16T05:58:42;6.40;70.80
84791;DHT22;75024;43.486;3.794;2024-01-16T06:01:08;6.50;70.60
84791;DHT22;75024;43.486;3.794;2024-01-16T06:03:34;6.40;70.50
84791;DHT22;75024;43.486;3.794;2024-01-16T06:05:59;6.50;70.30
84791;DHT22;75024;43.486;3.794;2024-01-16T06:08:25;6.50;70.30
84791;DHT22;75024;43.486;3.794;2024-01-16T06:10:51;6.50;69.40
84791;DHT22;75024;43.486;3.794;2024-01-16T06:13:18;6.50;70.40
84791;DHT22;75024;43.486;3.794;2024-01-16T06:15:44;6.40;72.10
84791;DHT22;75024;43.486;3.794;2024-01-16T06:18:09;6.30;73.80
84791;DHT22;75024;43.486;3.794;2024-01-16T06:20:35;6.30;74.90
84791;DHT22;75024;43.486;3.794;2024-01-16T06:23:01;6.10;75.30
84791;DHT22;75024;43.486;3.794;2024-01-16T06:25:27;6.00;76.80
84791;DHT22;75024;43.486;3.794;2024-01-16T06:27:52;6.00;77.90
84791;DHT22;75024;43.486;3.794;2024-01-16T06:30:18;6.00;77.40
84791;DHT22;75024;43.486;3.794;2024-01-16T06:32:43;6.00;78.10
84791;DHT22;75024;43.486;3.794;2024-01-16T06:35:09;6.00;79.30
84791;DHT22;75024;43.486;3.794;2024-01-16T06:37:36;5.90;78.20
84791;DHT22;75024;43.486;3.794;2024-01-16T06:40:01;6.00;79.30
84791;DHT22;75024;43.486;3.794;2024-01-16T06:42:28;6.00;79.20
84791;DHT22;75024;43.486;3.794;2024-01-16T06:44:53;6.00;78.00
84791;DHT22;75024;43.486;3.794;2024-01-16T06:47:19;5.90;77.80
84791;DHT22;75024;43.486;3.794;2024-01-16T06:49:45;6.00;78.30
84791;DHT22;75024;43.486;3.794;2024-01-16T06:52:10;6.00;77.50
84791;DHT22;75024;43.486;3.794;2024-01-16T06:54:36;5.90;76.60
84791;DHT22;75024;43.486;3.794;2024-01-16T06:57:01;6.00;76.70
84791;DHT22;75024;43.486;3.794;2024-01-16T06:59:28;6.00;76.40
84791;DHT22;75024;43.486;3.794;2024-01-16T07:01:53;6.00;76.50
84791;DHT22;75024;43.486;3.794;2024-01-16T07:04:20;6.00;77.00
84791;DHT22;75024;43.486;3.794;2024-01-16T07:06:46;6.00;77.10
84791;DHT22;75024;43.486;3.794;2024-01-16T07:09:12;6.00;76.00
84791;DHT22;75024;43.486;3.794;2024-01-16T07:11:38;6.00;76.80
84791;DHT22;75024;43.486;3.794;2024-01-16T07:14:07;6.00;76.10
84791;DHT22;75024;43.486;3.794;2024-01-16T07:16:33;6.00;76.00
84791;DHT22;75024;43.486;3.794;2024-01-16T07:18:59;6.00;75.90
84791;DHT22;75024;43.486;3.794;2024-01-16T07:21:24;6.10;76.70
84791;DHT22;75024;43.486;3.794;2024-01-16T07:23:50;6.10;75.80
84791;DHT22;75024;43.486;3.794;2024-01-16T07:26:16;6.10;76.20
84791;DHT22;75024;43.486;3.794;2024-01-16T07:28:42;6.20;77.30
84791;DHT22;75024;43.486;3.794;2024-01-16T07:31:07;6.20;77.10
84791;DHT22;75024;43.486;3.794;2024-01-16T07:33:35;6.20;76.90
84791;DHT22;75024;43.486;3.794;2024-01-16T07:36:01;6.20;76.20
84791;DHT22;75024;43.486;3.794;2024-01-16T07:38:26;6.10;75.70
84791;DHT22;75024;43.486;3.794;2024-01-16T07:40:52;6.20;76.70
84791;DHT22;75024;43.486;3.794;2024-01-16T07:43:18;6.20;74.10
84791;DHT22;75024;43.486;3.794;2024-01-16T07:45:43;6.20;74.00
84791;DHT22;75024;43.486;3.794;2024-01-16T07:48:09;6.10;72.60
84791;DHT22;75024;43.486;3.794;2024-01-16T07:50:34;6.10;71.90
84791;DHT22;75024;43.486;3.794;2024-01-16T07:53:00;6.00;72.60
84791;DHT22;75024;43.486;3.794;2024-01-16T07:55:26;6.10;73.20
84791;DHT22;75024;43.486;3.794;2024-01-16T07:57:53;6.10;72.50
84791;DHT22;75024;43.486;3.794;2024-01-16T08:00:19;6.10;71.50
84791;DHT22;75024;43.486;3.794;2024-01-16T08:02:44;6.10;71.20
84791;DHT22;75024;43.486;3.794;2024-01-16T08:05:10;6.10;71.80
84791;DHT22;75024;43.486;3.794;2024-01-16T08:07:36;6.20;72.30
84791;DHT22;75024;43.486;3.794;2024-01-16T08:10:02;6.10;72.00
84791;DHT22;75024;43.486;3.794;2024-01-16T08:12:28;6.20;70.60
84791;DHT22;75024;43.486;3.794;2024-01-16T08:14:53;6.20;70.60
84791;DHT22;75024;43.486;3.794;2024-01-16T08:17:19;6.20;71.10
84791;DHT22;75024;43.486;3.794;2024-01-16T08:19:45;6.20;71.40
84791;DHT22;75024;43.486;3.794;2024-01-16T08:22:10;6.20;71.50
84791;DHT22;75024;43.486;3.794;2024-01-16T08:24:36;6.20;72.20
84791;DHT22;75024;43.486;3.794;2024-01-16T08:27:02;6.20;71.30
84791;DHT22;75024;43.486;3.794;2024-01-16T08:29:28;6.20;70.20
84791;DHT22;75024;43.486;3.794;2024-01-16T08:31:53;6.20;71.00
84791;DHT22;75024;43.486;3.794;2024-01-16T08:34:19;6.30;71.00
84791;DHT22;75024;43.486;3.794;2024-01-16T08:36:45;6.20;70.40
84791;DHT22;75024;43.486;3.794;2024-01-16T08:39:11;6.20;71.50
84791;DHT22;75024;43.486;3.794;2024-01-16T08:41:37;6.30;72.00
84791;DHT22;75024;43.486;3.794;2024-01-16T08:44:02;6.30;71.40
84791;DHT22;75024;43.486;3.794;2024-01-16T08:46:28;6.40;71.30
84791;DHT22;75024;43.486;3.794;2024-01-16T08:48:54;6.50;71.10
84791;DHT22;75024;43.486;3.794;2024-01-16T08:51:20;6.60;71.10
84791;DHT22;75024;43.486;3.794;2024-01-16T08:53:45;6.60;71.00
84791;DHT22;75024;43.486;3.794;2024-01-16T08:56:11;6.70;70.90
84791;DHT22;75024;43.486;3.794;2024-01-16T08:58:41;6.70;70.90
84791;DHT22;75024;43.486;3.794;2024-01-16T09:01:07;6.70;70.60
84791;DHT22;75024;43.486;3.794;2024-01-16T09:03:34;6.70;71.40
84791;DHT22;75024;43.486;3.794;2024-01-16T09:06:00;6.80;71.40
84791;DHT22;75024;43.486;3.794;2024-01-16T09:08:29;6.90;71.50
84791;DHT22;75024;43.486;3.794;2024-01-16T09:10:55;7.00;71.60
84791;DHT22;75024;43.486;3.794;2024-01-16T09:13:21;7.10;72.10
84791;DHT22;75024;43.486;3.794;2024-01-16T09:15:49;7.20;71.90
84791;DHT22;75024;43.486;3.794;2024-01-16T09:18:15;7.20;72.40
84791;DHT22;75024;43.486;3.794;2024-01-16T09:20:42;7.30;71.80
84791;DHT22;75024;43.486;3.794;2024-01-16T09:23:08;7.40;70.50
84791;DHT22;75024;43.486;3.794;2024-01-16T09:25:34;7.30;70.10
84791;DHT22;75024;43.486;3.794;2024-01-16T09:28:01;7.20;70.20
84791;DHT22;75024;43.486;3.794;2024-01-16T09:30:26;7.30;70.80
84791;DHT22;75024;43.486;3.794;2024-01-16T09:32:52;7.40;70.90
84791;DHT22;75024;43.486;3.794;2024-01-16T09:35:18;7.60;70.60
84791;DHT22;75024;43.486;3.794;2024-01-16T09:37:44;7.70;70.20
84791;DHT22;75024;43.486;3.794;2024-01-16T09:40:10;7.80;69.60
84791;DHT22;75024;43.486;3.794;2024-01-16T09:42:36;7.80;69.00
84791;DHT22;75024;43.486;3.794;2024-01-16T09:45:02;7.80;68.30
84791;DHT22;75024;43.486;3.794;2024-01-16T09:47:30;7.80;67.60
84791;DHT22;75024;43.486;3.794;2024-01-16T09:49:57;7.90;68.20
84791;DHT22;75024;43.486;3.794;2024-01-16T09:52:25;8.10;68.20
84791;DHT22;75024;43.486;3.794;2024-01-16T09:54:51;8.20;67.00
84791;DHT22;75024;43.486;3.794;2024-01-16T09:57:19;8.10;67.40
84791;DHT22;75024;43.486;3.794;2024-01-16T09:59:48;8.10;68.40
84791;DHT22;75024;43.486;3.794;2024-01-16T10:02:14;8.10;68.80
84791;DHT22;75024;43.486;3.794;2024-01-16T10:04:43;8.20;68.90
84791;DHT22;75024;43.486;3.794;2024-01-16T10:07:12;8.20;69.10
84791;DHT22;75024;43.486;3.794;2024-01-16T10:09:39;8.40;68.60
84791;DHT22;75024;43.486;3.794;2024-01-16T10:12:06;8.30;67.90
84791;DHT22;75024;43.486;3.794;2024-01-16T10:14:32;8.50;68.80
84791;DHT22;75024;43.486;3.794;2024-01-16T10:19:27;8.50;67.90
84791;DHT22;75024;43.486;3.794;2024-01-16T10:21:52;8.60;67.90
84791;DHT22;75024;43.486;3.794;2024-01-16T10:24:21;8.70;67.70
84791;DHT22;75024;43.486;3.794;2024-01-16T10:26:57;8.70;68.00
84791;DHT22;75024;43.486;3.794;2024-01-16T10:29:24;8.60;67.80
84791;DHT22;75024;43.486;3.794;2024-01-16T10:31:49;8.50;68.50
84791;DHT22;75024;43.486;3.794;2024-01-16T10:34:24;8.50;69.50
84791;DHT22;75024;43.486;3.794;2024-01-16T10:36:51;8.60;69.30
84791;DHT22;75024;43.486;3.794;2024-01-16T10:39:18;8.60;70.00
84791;DHT22;75024;43.486;3.794;2024-01-16T10:41:59;8.60;69.80
84791;DHT22;75024;43.486;3.794;2024-01-16T10:44:25;8.70;70.30
84791;DHT22;75024;43.486;3.794;2024-01-16T10:47:09;8.70;69.90
84791;DHT22;75024;43.486;3.794;2024-01-16T10:49:35;8.80;69.80
84791;DHT22;75024;43.486;3.794;2024-01-16T10:52:01;8.90;69.30
84791;DHT22;75024;43.486;3.794;2024-01-16T10:54:27;9.00;68.50
84791;DHT22;75024;43.486;3.794;2024-01-16T10:56:54;9.20;68.10
84791;DHT22;75024;43.486;3.794;2024-01-16T10:59:57;9.30;67.00
84791;DHT22;75024;43.486;3.794;2024-01-16T11:02:29;9.30;66.60
84791;DHT22;75024;43.486;3.794;2024-01-16T11:04:58;9.20;66.00
84791;DHT22;75024;43.486;3.794;2024-01-16T11:07:24;8.90;67.40
84791;DHT22;75024;43.486;3.794;2024-01-16T11:09:51;8.70;67.80
84791;DHT22;75024;43.486;3.794;2024-01-16T11:12:18;8.60;68.50
84791;DHT22;75024;43.486;3.794;2024-01-16T11:14:49;8.60;68.90
84791;DHT22;75024;43.486;3.794;2024-01-16T11:17:19;8.60;68.80
84791;DHT22;75024;43.486;3.794;2024-01-16T11:19:46;8.80;69.00
84791;DHT22;75024;43.486;3.794;2024-01-16T11:22:13;9.00;68.70
84791;DHT22;75024;43.486;3.794;2024-01-16T11:24:39;9.00;68.40
84791;DHT22;75024;43.486;3.794;2024-01-16T11:27:05;9.10;68.70
84791;DHT22;75024;43.486;3.794;2024-01-16T11:31:57;8.90;67.30
84791;DHT22;75024;43.486;3.794;2024-01-16T11:37:11;8.70;68.00
84791;DHT22;75024;43.486;3.794;2024-01-16T11:39:38;8.50;68.80
84791;DHT22;75024;43.486;3.794;2024-01-16T11:42:04;8.50;69.40
84791;DHT22;75024;43.486;3.794;2024-01-16T11:47:20;8.50;69.00
84791;DHT22;75024;43.486;3.794;2024-01-16T11:49:47;8.70;68.60
84791;DHT22;75024;43.486;3.794;2024-01-16T11:52:14;8.90;68.80
84791;DHT22;75024;43.486;3.794;2024-01-16T11:54:40;9.30;67.40
84791;DHT22;75024;43.486;3.794;2024-01-16T11:59:58;9.40;66.70
84791;DHT22;75024;43.486;3.794;2024-01-16T12:05:11;9.70;66.80
84791;DHT22;75024;43.486;3.794;2024-01-16T12:10:17;10.10;66.00
84791;DHT22;75024;43.486;3.794;2024-01-16T12:12:43;10.10;65.70
84791;DHT22;75024;43.486;3.794;2024-01-16T12:15:20;10.00;66.50
84791;DHT22;75024;43.486;3.794;2024-01-16T12:17:59;9.90;67.30
84791;DHT22;75024;43.486;3.794;2024-01-16T12:20:28;10.20;66.10
84791;DHT22;75024;43.486;3.794;2024-01-16T12:22:58;10.60;65.30
84791;DHT22;75024;43.486;3.794;2024-01-16T12:25:25;10.60;65.20
84791;DHT22;75024;43.486;3.794;2024-01-16T12:27:58;10.60;64.20
84791;DHT22;75024;43.486;3.794;2024-01-16T12:30:25;10.30;65.40
84791;DHT22;75024;43.486;3.794;2024-01-16T12:32:51;10.30;65.60
84791;DHT22;75024;43.486;3.794;2024-01-16T12:35:22;10.30;65.80
84791;DHT22;75024;43.486;3.794;2024-01-16T12:38:08;10.70;65.10
84791;DHT22;75024;43.486;3.794;2024-01-16T12:40:41;11.70;62.10
84791;DHT22;75024;43.486;3.794;2024-01-16T12:43:08;12.50;60.40
84791;DHT22;75024;43.486;3.794;2024-01-16T12:45:37;13.20;58.20
84791;DHT22;75024;43.486;3.794;2024-01-16T12:48:03;13.70;57.20
84791;DHT22;75024;43.486;3.794;2024-01-16T12:50:30;13.70;56.90
84791;DHT22;75024;43.486;3.794;2024-01-16T12:55:29;12.30;59.90
84791;DHT22;75024;43.486;3.794;2024-01-16T13:00:49;10.20;66.60
84791;DHT22;75024;43.486;3.794;2024-01-16T13:03:24;10.10;67.60
84791;DHT22;75024;43.486;3.794;2024-01-16T13:06:10;9.70;68.50
84791;DHT22;75024;43.486;3.794;2024-01-16T13:08:36;9.60;69.20
84791;DHT22;75024;43.486;3.794;2024-01-16T13:11:06;9.60;69.50
84791;DHT22;75024;43.486;3.794;2024-01-16T13:13:33;9.60;69.60
84791;DHT22;75024;43.486;3.794;2024-01-16T13:16:00;9.50;70.10
84791;DHT22;75024;43.486;3.794;2024-01-16T13:18:29;9.60;70.20
84791;DHT22;75024;43.486;3.794;2024-01-16T13:20:56;9.50;70.10
84791;DHT22;75024;43.486;3.794;2024-01-16T13:23:23;9.50;70.40
84791;DHT22;75024;43.486;3.794;2024-01-16T13:25:53;9.40;71.00
84791;DHT22;75024;43.486;3.794;2024-01-16T13:28:21;9.30;71.50
84791;DHT22;75024;43.486;3.794;2024-01-16T13:30:48;9.40;71.60
84791;DHT22;75024;43.486;3.794;2024-01-16T13:33:14;9.40;71.30
84791;DHT22;75024;43.486;3.794;2024-01-16T13:35:42;9.40;71.40
84791;DHT22;75024;43.486;3.794;2024-01-16T13:38:09;9.50;71.40
84791;DHT22;75024;43.486;3.794;2024-01-16T13:40:36;9.40;71.20
84791;DHT22;75024;43.486;3.794;2024-01-16T13:43:04;9.30;71.70
84791;DHT22;75024;43.486;3.794;2024-01-16T13:45:32;9.40;71.60
84791;DHT22;75024;43.486;3.794;2024-01-16T13:47:58;9.10;71.80
84791;DHT22;75024;43.486;3.794;2024-01-16T13:50:26;8.90;72.90
84791;DHT22;75024;43.486;3.794;2024-01-16T13:52:52;8.90;73.10
84791;DHT22;75024;43.486;3.794;2024-01-16T13:55:19;9.10;72.90
84791;DHT22;75024;43.486;3.794;2024-01-16T13:57:45;9.20;72.40
84791;DHT22;75024;43.486;3.794;2024-01-16T14:00:12;9.40;72.00
84791;DHT22;75024;43.486;3.794;2024-01-16T14:02:43;9.50;72.20
84791;DHT22;75024;43.486;3.794;2024-01-16T14:05:10;9.50;71.60
84791;DHT22;75024;43.486;3.794;2024-01-16T14:07:37;9.60;71.20
84791;DHT22;75024;43.486;3.794;2024-01-16T14:10:05;9.50;71.40
84791;DHT22;75024;43.486;3.794;2024-01-16T14:12:31;9.40;71.70
84791;DHT22;75024;43.486;3.794;2024-01-16T14:14:57;9.30;72.00
84791;DHT22;75024;43.486;3.794;2024-01-16T14:17:23;9.30;72.20
84791;DHT22;75024;43.486;3.794;2024-01-16T14:19:48;9.30;72.30
84791;DHT22;75024;43.486;3.794;2024-01-16T14:22:14;9.40;72.20
84791;DHT22;75024;43.486;3.794;2024-01-16T14:24:39;9.40;72.50
84791;DHT22;75024;43.486;3.794;2024-01-16T14:27:05;9.40;72.30
84791;DHT22;75024;43.486;3.794;2024-01-16T14:29:32;9.40;72.70
84791;DHT22;75024;43.486;3.794;2024-01-16T14:31:59;9.40;72.60
84791;DHT22;75024;43.486;3.794;2024-01-16T14:34:26;9.30;72.80
84791;DHT22;75024;43.486;3.794;2024-01-16T14:36:53;9.40;73.10
84791;DHT22;75024;43.486;3.794;2024-01-16T14:39:19;9.40;72.90
84791;DHT22;75024;43.486;3.794;2024-01-16T14:41:50;9.50;73.00
84791;DHT22;75024;43.486;3.794;2024-01-16T14:44:16;9.50;73.10
84791;DHT22;75024;43.486;3.794;2024-01-16T14:46:41;9.50;73.30
84791;DHT22;75024;43.486;3.794;2024-01-16T14:49:10;9.60;73.40
84791;DHT22;75024;43.486;3.794;2024-01-16T14:51:35;9.60;73.30
84791;DHT22;75024;43.486;3.794;2024-01-16T14:54:03;9.60;73.20
84791;DHT22;75024;43.486;3.794;2024-01-16T14:56:30;9.60;73.20
84791;DHT22;75024;43.486;3.794;2024-01-16T14:58:56;9.60;73.60
84791;DHT22;75024;43.486;3.794;2024-01-16T15:01:22;9.50;73.70
84791;DHT22;75024;43.486;3.794;2024-01-16T15:03:48;9.50;74.00
84791;DHT22;75024;43.486;3.794;2024-01-16T15:06:14;9.70;73.90
84791;DHT22;75024;43.486;3.794;2024-01-16T15:08:41;10.30;71.80
84791;DHT22;75024;43.486;3.794;2024-01-16T15:11:06;11.00;69.80
84791;DHT22;75024;43.486;3.794;2024-01-16T15:13:33;10.80;70.10
84791;DHT22;75024;43.486;3.794;2024-01-16T15:15:59;10.40;71.60
84791;DHT22;75024;43.486;3.794;2024-01-16T15:18:24;10.20;72.50
84791;DHT22;75024;43.486;3.794;2024-01-16T15:20:50;9.90;74.30
84791;DHT22;75024;43.486;3.794;2024-01-16T15:23:16;10.20;73.40
84791;DHT22;75024;43.486;3.794;2024-01-16T15:25:42;10.20;73.60
84791;DHT22;75024;43.486;3.794;2024-01-16T15:28:08;10.30;73.30
84791;DHT22;75024;43.486;3.794;2024-01-16T15:30:34;10.20;73.90
84791;DHT22;75024;43.486;3.794;2024-01-16T15:33:01;10.10;74.60
84791;DHT22;75024;43.486;3.794;2024-01-16T15:35:30;10.10;74.40
84791;DHT22;75024;43.486;3.794;2024-01-16T15:37:56;10.00;74.80
84791;DHT22;75024;43.486;3.794;2024-01-16T15:40:21;9.60;76.20
84791;DHT22;75024;43.486;3.794;2024-01-16T15:42:48;9.50;76.60
84791;DHT22;75024;43.486;3.794;2024-01-16T15:45:14;9.70;76.40
84791;DHT22;75024;43.486;3.794;2024-01-16T15:47:40;9.80;76.10
84791;DHT22;75024;43.486;3.794;2024-01-16T15:50:08;9.90;76.00
84791;DHT22;75024;43.486;3.794;2024-01-16T15:52:34;9.80;76.00
84791;DHT22;75024;43.486;3.794;2024-01-16T15:55:00;9.70;76.70
84791;DHT22;75024;43.486;3.794;2024-01-16T15:57:27;9.50;77.20
84791;DHT22;75024;43.486;3.794;2024-01-16T15:59:53;9.40;78.00
84791;DHT22;75024;43.486;3.794;2024-01-16T16:02:19;9.30;78.30
84791;DHT22;75024;43.486;3.794;2024-01-16T16:04:44;9.30;78.50